createdAt,value
2023-04-09T00:01:35.618Z,67.67
2023-04-09T00:04:06.239Z,67.63
2023-04-09T00:06:36.574Z,67.74
2023-04-09T00:09:06.999Z,67.74
2023-04-09T00:11:37.829Z,68.12
2023-04-09T00:14:08.124Z,68.36
2023-04-09T00:16:38.486Z,67.95
2023-04-09T00:19:08.839Z,68.26
2023-04-09T00:21:39.497Z,68.51
2023-04-09T00:24:09.875Z,68.40
2023-04-09T00:26:40.310Z,67.84
2023-04-09T00:29:10.579Z,68.28
2023-04-09T00:31:40.918Z,68.68
2023-04-09T00:34:11.290Z,68.67
2023-04-09T00:36:41.655Z,68.42
2023-04-09T00:39:12.176Z,68.35
2023-04-09T00:41:42.650Z,68.58
2023-04-09T00:44:13.617Z,68.67
2023-04-09T00:46:44.087Z,68.87
2023-04-09T00:49:14.979Z,69.38
2023-04-09T00:51:47.837Z,69.06
2023-04-09T00:54:18.649Z,69.78
2023-04-09T00:56:49.587Z,69.63
2023-04-09T00:59:20.023Z,69.38
2023-04-09T01:01:50.362Z,69.30
2023-04-09T01:04:21.221Z,69.29
2023-04-09T01:07:01.619Z,68.95
2023-04-09T01:09:39.786Z,68.94
2023-04-09T01:13:02.520Z,68.51
2023-04-09T01:15:40.933Z,68.87
2023-04-09T01:18:25.758Z,68.53
2023-04-09T01:21:13.918Z,68.42
2023-04-09T01:23:58.020Z,68.43
2023-04-09T01:26:54.314Z,68.77
2023-04-09T01:29:29.545Z,68.70
2023-04-09T01:32:02.110Z,68.68
2023-04-09T01:34:34.397Z,68.63
2023-04-09T01:37:06.450Z,68.39
2023-04-09T01:39:39.403Z,68.79
2023-04-09T01:42:13.562Z,69.01
2023-04-09T01:44:45.303Z,69.23
2023-04-09T01:47:16.325Z,68.95
2023-04-09T01:49:47.465Z,68.87
2023-04-09T01:52:17.919Z,68.71
2023-04-09T01:54:48.564Z,68.85
2023-04-09T01:57:18.902Z,68.73
2023-04-09T01:59:49.329Z,69.00
2023-04-09T02:02:27.427Z,68.96
2023-04-09T02:05:10.481Z,68.62
2023-04-09T02:07:45.663Z,68.63
2023-04-09T02:10:19.786Z,68.61
2023-04-09T02:12:56.115Z,68.83
2023-04-09T02:15:27.589Z,68.59
2023-04-09T02:17:58.181Z,68.76
2023-04-09T02:20:28.322Z,69.01
2023-04-09T02:22:58.551Z,68.64
2023-04-09T02:25:29.843Z,69.06
2023-04-09T02:28:00.229Z,69.24
2023-04-09T02:30:35.757Z,68.84
2023-04-09T02:33:06.121Z,68.56
2023-04-09T02:35:36.873Z,68.28
2023-04-09T02:38:07.354Z,68.49
2023-04-09T02:40:38.597Z,68.48
2023-04-09T02:43:09.300Z,68.52
2023-04-09T02:45:39.627Z,68.55
2023-04-09T02:48:10.060Z,68.82
2023-04-09T02:50:40.462Z,69.13
2023-04-09T02:53:11.015Z,68.90
2023-04-09T02:55:41.145Z,68.80
2023-04-09T02:58:11.466Z,68.58
2023-04-09T03:00:41.973Z,68.22
2023-04-09T03:03:12.484Z,68.18
2023-04-09T03:05:43.354Z,68.32
2023-04-09T03:08:13.911Z,67.86
2023-04-09T03:10:44.457Z,67.79
2023-04-09T03:13:14.851Z,67.40
2023-04-09T03:15:45.148Z,67.36
2023-04-09T03:18:15.562Z,67.41
2023-04-09T03:20:45.925Z,67.42
2023-04-09T03:23:18.354Z,67.71
2023-04-09T03:25:50.562Z,67.52
2023-04-09T03:28:22.531Z,67.18
2023-04-09T03:30:55.965Z,67.26
2023-04-09T03:33:27.973Z,67.03
2023-04-09T03:36:00.959Z,66.76
2023-04-09T03:38:51.949Z,66.64
2023-04-09T05:26:20.200Z,58.45
2023-04-09T05:28:57.904Z,58.96
2023-04-09T05:31:28.772Z,59.18
2023-04-09T05:34:12.196Z,58.78
2023-04-09T05:36:50.966Z,57.96
2023-04-09T05:39:24.148Z,57.75
2023-04-09T05:41:55.404Z,57.78
2023-04-09T05:44:25.657Z,57.88
2023-04-09T05:47:03.477Z,58.12
2023-04-09T05:49:40.932Z,56.33
2023-04-09T05:52:15.341Z,55.72
2023-04-09T05:54:46.130Z,55.52
2023-04-09T05:57:20.758Z,55.83
2023-04-09T05:59:57.964Z,54.91
2023-04-09T06:02:29.057Z,54.84
2023-04-09T06:04:59.758Z,54.58
2023-04-09T06:07:30.380Z,53.23
2023-04-09T06:10:00.641Z,53.40
2023-04-09T06:12:30.833Z,53.15
2023-04-09T06:15:01.054Z,54.03
2023-04-09T06:17:32.330Z,54.67
2023-04-09T06:20:02.796Z,55.05
2023-04-09T06:22:34.153Z,55.13
2023-04-09T06:25:04.425Z,55.18
2023-04-09T06:27:34.750Z,54.02
2023-04-09T06:30:05.031Z,55.03
2023-04-09T06:32:46.833Z,55.47
2023-04-09T06:35:21.610Z,54.10
2023-04-09T06:37:52.050Z,54.74
2023-04-09T06:40:23.240Z,54.70
2023-04-09T06:42:53.845Z,54.73
2023-04-09T06:45:30.662Z,54.13
2023-04-09T06:48:01.263Z,53.59
2023-04-09T06:50:31.725Z,53.92
2023-04-09T06:53:03.789Z,53.17
2023-04-09T06:55:34.853Z,51.63
2023-04-09T06:58:05.234Z,53.12
2023-04-09T07:00:35.616Z,53.55
2023-04-09T07:03:07.290Z,53.32
2023-04-09T07:05:38.934Z,53.69
2023-04-09T07:08:09.739Z,54.04
2023-04-09T07:10:39.976Z,54.17
2023-04-09T07:13:10.457Z,54.42
2023-04-09T07:15:42.506Z,54.00
2023-04-09T07:18:13.314Z,54.43
2023-04-09T07:20:43.473Z,53.55
2023-04-09T07:23:14.148Z,53.51
2023-04-09T07:25:44.845Z,53.30
2023-04-09T07:28:15.339Z,53.42
2023-04-09T07:30:46.928Z,53.60
2023-04-09T07:33:18.782Z,52.51
2023-04-09T07:35:49.448Z,52.42
2023-04-09T07:38:20.016Z,52.60
2023-04-09T07:40:50.768Z,52.75
2023-04-09T07:43:22.587Z,53.38
2023-04-09T07:45:55.734Z,53.43
2023-04-09T07:48:26.282Z,53.15
2023-04-09T07:50:56.708Z,53.40
2023-04-09T07:53:27.075Z,53.34
2023-04-09T07:55:57.494Z,53.23
2023-04-09T07:58:27.620Z,53.50
2023-04-09T08:00:57.999Z,53.82
2023-04-09T08:03:28.807Z,53.98
2023-04-09T08:05:59.369Z,53.51
2023-04-09T08:08:30.053Z,53.72
2023-04-09T08:11:00.412Z,53.69
2023-04-09T08:13:30.743Z,54.26
2023-04-09T08:16:04.635Z,54.65
2023-04-09T08:18:34.986Z,54.39
2023-04-09T08:21:08.650Z,54.50
2023-04-09T08:23:40.228Z,55.48
2023-04-09T08:26:10.614Z,54.73
2023-04-09T08:28:40.923Z,53.57
2023-04-09T08:31:13.620Z,53.61
2023-04-09T08:33:45.376Z,53.72
2023-04-09T08:36:15.854Z,53.32
2023-04-09T08:38:47.538Z,53.09
2023-04-09T08:41:27.132Z,51.50
2023-04-09T08:43:59.544Z,51.55
2023-04-09T08:46:30.541Z,51.95
2023-04-09T08:49:00.903Z,52.17
2023-04-09T08:51:31.506Z,52.77
2023-04-09T08:54:05.339Z,52.30
2023-04-09T08:56:36.566Z,51.15
2023-04-09T08:59:06.861Z,51.19
2023-04-09T09:01:37.490Z,51.33
2023-04-09T09:04:10.179Z,51.53
2023-04-09T09:06:44.022Z,51.63
2023-04-09T09:09:19.388Z,51.43
2023-04-09T09:11:52.644Z,51.25
2023-04-09T09:14:23.120Z,51.37
2023-04-09T09:16:59.241Z,50.95
2023-04-09T09:19:29.633Z,50.62
2023-04-09T09:22:00.974Z,50.76
2023-04-09T09:24:32.535Z,50.29
2023-04-09T09:27:03.948Z,50.13
2023-04-09T09:29:34.300Z,50.74
2023-04-09T09:32:04.686Z,50.73
2023-04-09T09:34:35.371Z,51.18
2023-04-09T09:37:25.535Z,51.82
2023-04-09T09:39:55.842Z,51.09
2023-04-09T09:42:26.115Z,50.59
2023-04-09T09:44:57.791Z,49.75
2023-04-09T09:47:30.559Z,50.32
2023-04-09T09:50:00.990Z,50.05
2023-04-09T09:52:31.530Z,50.21
2023-04-09T09:55:07.745Z,49.93
2023-04-09T09:57:41.993Z,50.47
2023-04-09T10:00:17.738Z,49.57
2023-04-09T10:03:11.654Z,49.15
2023-04-09T10:05:43.735Z,49.52
2023-04-09T10:08:15.913Z,49.92
2023-04-09T10:10:46.453Z,50.04
2023-04-09T10:13:28.023Z,49.26
2023-04-09T10:15:58.919Z,49.98
2023-04-09T10:18:29.661Z,49.60
2023-04-09T10:21:04.506Z,49.66
2023-04-09T10:23:42.803Z,49.72
2023-04-09T10:26:13.761Z,49.43
2023-04-09T10:28:45.817Z,49.73
2023-04-09T10:31:17.332Z,50.16
2023-04-09T10:33:48.392Z,50.29
2023-04-09T10:36:22.777Z,50.17
2023-04-09T10:38:54.281Z,50.35
2023-04-09T10:41:33.227Z,50.73
2023-04-09T10:44:03.907Z,51.21
2023-04-09T10:46:38.761Z,51.91
2023-04-09T10:49:22.209Z,51.99
2023-04-09T10:52:13.299Z,51.95
2023-04-09T10:54:53.501Z,52.18
2023-04-09T10:57:24.806Z,52.22
2023-04-09T10:59:57.205Z,51.72
2023-04-09T11:02:43.138Z,52.03
2023-04-09T11:05:25.189Z,52.19
2023-04-09T11:08:08.111Z,51.99
2023-04-09T11:10:39.565Z,53.18
2023-04-09T11:13:13.712Z,52.56
2023-04-09T11:15:44.886Z,53.03
2023-04-09T11:18:29.302Z,53.32
2023-04-09T11:21:05.521Z,52.88
2023-04-09T11:23:36.365Z,53.35
2023-04-09T11:26:07.634Z,53.19
2023-04-09T11:28:38.894Z,53.07
2023-04-09T11:31:09.745Z,53.60
2023-04-09T11:33:40.295Z,53.78
2023-04-09T11:36:11.188Z,54.35
2023-04-09T11:38:42.169Z,54.46
2023-04-09T11:41:15.840Z,54.01
2023-04-09T11:43:46.218Z,54.47
2023-04-09T11:46:17.945Z,54.25
2023-04-09T11:48:48.600Z,54.70
2023-04-09T11:51:19.501Z,55.06
2023-04-09T11:53:52.264Z,54.53
2023-04-09T11:56:23.409Z,54.39
2023-04-09T11:58:54.118Z,55.78
2023-04-09T12:01:25.811Z,55.73
2023-04-09T12:03:57.139Z,55.92
2023-04-09T12:06:28.866Z,55.92
2023-04-09T12:09:00.501Z,56.35
2023-04-09T12:11:34.966Z,56.45
2023-04-09T12:14:07.156Z,57.26
2023-04-09T12:16:38.293Z,57.14
2023-04-09T12:19:13.041Z,57.44
2023-04-09T12:21:55.484Z,57.85
2023-04-09T12:24:30.448Z,57.61
2023-04-09T12:29:08.986Z,58.25
2023-04-09T12:31:39.389Z,58.52
2023-04-09T12:34:09.815Z,58.25
2023-04-09T12:36:42.208Z,58.33
2023-04-09T12:39:13.050Z,58.09
2023-04-09T12:41:43.756Z,57.94
2023-04-09T12:44:14.201Z,58.05
2023-04-09T12:46:44.579Z,58.39
2023-04-09T12:49:14.903Z,58.59
2023-04-09T12:51:45.178Z,58.89
2023-04-09T12:54:15.397Z,58.64
2023-04-09T12:56:45.741Z,58.73
2023-04-09T12:59:16.151Z,59.28
2023-04-09T13:01:48.667Z,59.42
2023-04-09T13:04:19.833Z,59.73
2023-04-09T13:06:51.185Z,59.71
2023-04-09T13:09:21.623Z,60.14
2023-04-09T13:12:06.356Z,60.03
2023-04-09T13:14:40.300Z,60.08
2023-04-09T13:17:11.295Z,60.57
2023-04-09T13:19:42.788Z,60.73
2023-04-09T13:22:14.043Z,60.80
2023-04-09T13:24:45.694Z,60.85
2023-04-09T13:27:17.184Z,61.25
2023-04-09T13:29:48.241Z,61.22
2023-04-09T13:32:19.596Z,61.34
2023-04-09T13:34:50.674Z,62.10
2023-04-09T13:37:21.471Z,62.18
2023-04-09T13:39:53.496Z,62.98
2023-04-09T13:42:24.629Z,63.07
2023-04-09T13:44:55.466Z,63.34
2023-04-09T13:47:26.819Z,63.61
2023-04-09T13:49:57.298Z,63.66
2023-04-09T13:52:29.694Z,63.57
2023-04-09T13:55:00.151Z,63.80
2023-04-09T13:57:30.582Z,63.59
2023-04-09T14:00:04.225Z,63.87
2023-04-09T14:02:35.341Z,63.93
2023-04-09T14:05:06.261Z,64.10
2023-04-09T14:07:36.578Z,64.33
2023-04-09T14:10:07.085Z,64.69
2023-04-09T14:12:37.906Z,64.92
2023-04-09T14:15:09.243Z,65.02
2023-04-09T14:17:39.539Z,65.60
2023-04-09T14:20:12.164Z,65.84
2023-04-09T14:22:43.852Z,65.97
2023-04-09T14:25:14.404Z,65.71
2023-04-09T14:27:44.889Z,65.41
2023-04-09T14:30:16.351Z,65.43
2023-04-09T14:32:47.116Z,65.54
2023-04-09T14:35:18.881Z,65.63
2023-04-09T14:37:49.566Z,65.32
2023-04-09T14:40:19.732Z,65.25
2023-04-09T14:42:50.831Z,65.12
2023-04-09T14:45:21.176Z,65.13
2023-04-09T14:47:51.513Z,64.88
2023-04-09T14:50:21.940Z,64.59
2023-04-09T14:52:52.431Z,64.70
2023-04-09T14:55:23.547Z,64.38
2023-04-09T14:57:53.986Z,64.56
2023-04-09T15:00:24.826Z,64.57
2023-04-09T15:02:55.182Z,64.54
2023-04-09T15:05:25.794Z,64.03
2023-04-09T15:07:58.317Z,64.51
2023-04-09T15:10:28.705Z,64.50
2023-04-09T15:12:59.070Z,64.28
2023-04-09T15:15:29.988Z,64.47
2023-04-09T15:18:00.363Z,64.40
2023-04-09T15:20:30.998Z,64.99
2023-04-09T15:23:01.432Z,64.52
2023-04-09T15:25:31.675Z,64.70
2023-04-09T15:28:01.924Z,64.60
2023-04-09T15:30:32.280Z,64.40
2023-04-09T15:33:02.907Z,64.20
2023-04-09T15:35:34.115Z,64.38
2023-04-09T15:38:04.812Z,63.97
2023-04-09T15:40:35.188Z,63.82
2023-04-09T15:43:05.512Z,63.34
2023-04-09T15:45:35.728Z,63.33
2023-04-09T15:48:06.095Z,63.12
2023-04-09T15:50:37.812Z,63.17
2023-04-09T15:53:08.179Z,62.82
2023-04-09T15:55:38.517Z,62.89
2023-04-09T15:58:08.758Z,63.07
2023-04-09T16:00:39.026Z,62.92
2023-04-09T16:03:09.325Z,62.99
2023-04-09T16:05:39.622Z,63.03
2023-04-09T16:08:10.106Z,62.96
2023-04-09T16:10:40.386Z,63.09
2023-04-09T16:13:10.684Z,62.90
2023-04-09T16:15:41.179Z,63.00
2023-04-09T16:18:12.621Z,63.26
2023-04-09T16:20:42.915Z,63.32
2023-04-09T16:23:13.522Z,63.58
2023-04-09T16:25:43.989Z,63.51
2023-04-09T16:28:14.416Z,63.72
2023-04-09T16:30:45.027Z,63.88
2023-04-09T16:33:15.477Z,63.78
2023-04-09T16:35:45.979Z,63.94
2023-04-09T16:38:16.634Z,64.07
2023-04-09T16:40:47.306Z,64.43
2023-04-09T16:43:17.809Z,64.39
2023-04-09T16:45:49.047Z,64.28
2023-04-09T16:48:19.572Z,64.53
2023-04-09T16:50:49.716Z,64.62
2023-04-09T16:53:20.018Z,64.59
2023-04-09T16:55:50.321Z,64.89
2023-04-09T16:58:20.666Z,64.88
2023-04-09T17:00:51.973Z,64.83
2023-04-09T17:03:22.997Z,65.11
2023-04-09T17:05:53.389Z,65.26
2023-04-09T17:08:29.398Z,65.31
2023-04-09T17:11:04.475Z,65.36
2023-04-09T17:13:37.611Z,65.33
2023-04-09T17:16:08.777Z,65.33
2023-04-09T17:18:39.882Z,65.64
2023-04-09T17:21:10.167Z,65.62
2023-04-09T17:23:41.369Z,65.72
2023-04-09T17:26:11.680Z,65.72
2023-04-09T17:28:42.180Z,65.81
2023-04-09T17:31:16.868Z,65.67
2023-04-09T17:33:50.468Z,65.72
2023-04-09T17:36:22.096Z,65.22
2023-04-09T17:38:55.360Z,65.51
2023-04-09T17:41:26.638Z,65.37
2023-04-09T17:43:57.691Z,65.45
2023-04-09T17:46:28.161Z,65.19
2023-04-09T17:48:58.751Z,65.34
2023-04-09T17:51:29.444Z,65.37
2023-04-09T17:53:59.820Z,65.38
2023-04-09T17:56:30.120Z,65.24
2023-04-09T17:59:00.603Z,65.39
2023-04-09T18:01:30.865Z,65.44
2023-04-09T18:04:03.689Z,65.58
2023-04-09T18:06:34.217Z,65.32
2023-04-09T18:09:06.037Z,65.63
2023-04-09T18:11:36.282Z,65.57
2023-04-09T18:14:10.365Z,65.49
2023-04-09T18:16:41.906Z,65.49
2023-04-09T18:19:14.399Z,65.50
2023-04-09T18:21:44.834Z,65.54
2023-04-09T18:24:15.164Z,65.49
2023-04-09T18:26:45.441Z,65.54
2023-04-09T18:29:15.780Z,65.43
2023-04-09T18:31:46.180Z,65.61
2023-04-09T18:34:16.683Z,65.44
2023-04-09T18:36:47.186Z,65.47
2023-04-09T18:39:17.789Z,65.52
2023-04-09T18:41:48.088Z,65.61
2023-04-09T18:44:19.045Z,65.42
2023-04-09T18:46:49.577Z,65.38
2023-04-09T18:49:20.321Z,65.23
2023-04-09T18:51:50.622Z,65.34
2023-04-09T18:54:20.915Z,65.26
2023-04-09T18:56:51.147Z,65.29
2023-04-09T18:59:21.454Z,65.27
2023-04-09T19:01:51.776Z,65.21
2023-04-09T19:04:22.298Z,65.16
2023-04-09T19:06:53.288Z,65.35
2023-04-09T19:09:24.062Z,65.01
2023-04-09T19:11:54.354Z,65.27
2023-04-09T19:14:24.563Z,65.05
2023-04-09T19:16:54.843Z,65.17
2023-04-09T19:19:25.823Z,65.02
2023-04-09T19:21:56.082Z,65.03
2023-04-09T19:24:27.519Z,65.19
2023-04-09T19:26:59.039Z,65.20
2023-04-09T19:29:29.459Z,64.79
2023-04-09T19:31:59.817Z,65.21
2023-04-09T19:34:30.055Z,65.14
2023-04-09T19:37:00.324Z,65.05
2023-04-09T19:39:30.610Z,65.40
2023-04-09T19:42:13.217Z,65.44
2023-04-09T19:44:43.460Z,65.45
2023-04-09T19:47:13.790Z,65.36
2023-04-09T19:49:44.871Z,65.52
2023-04-09T19:52:15.291Z,65.52
2023-04-09T19:54:45.617Z,65.52
2023-04-09T19:57:15.891Z,65.38
2023-04-09T19:59:46.923Z,65.53
2023-04-09T20:02:19.226Z,65.73
2023-04-09T20:04:49.588Z,65.82
2023-04-09T20:07:19.866Z,65.98
2023-04-09T20:09:51.089Z,65.80
2023-04-09T20:12:23.425Z,65.94
2023-04-09T20:14:54.277Z,65.83
2023-04-09T20:17:24.646Z,66.04
2023-04-09T20:19:54.967Z,65.90
2023-04-09T20:22:26.058Z,66.07
2023-04-09T20:24:57.772Z,66.21
2023-04-09T20:27:28.136Z,65.98
2023-04-09T20:29:58.595Z,66.19
2023-04-09T20:32:29.494Z,65.94
2023-04-09T20:34:59.819Z,65.98
2023-04-09T20:37:29.917Z,65.98
2023-04-09T20:40:01.627Z,66.19
2023-04-09T20:42:32.011Z,66.26
2023-04-09T20:45:02.842Z,66.25
2023-04-09T20:47:33.529Z,66.27
2023-04-09T20:50:04.643Z,66.30
2023-04-09T20:52:35.112Z,66.36
2023-04-09T20:55:05.485Z,66.19
2023-04-09T20:57:36.168Z,66.48
2023-04-09T21:00:06.452Z,66.32
2023-04-09T21:02:37.199Z,66.31
2023-04-09T21:05:19.509Z,66.29
2023-04-09T21:07:53.301Z,66.53
2023-04-09T21:10:23.749Z,66.54
2023-04-09T21:12:54.320Z,66.56
2023-04-09T21:15:24.687Z,66.49
2023-04-09T21:17:55.025Z,66.29
2023-04-09T21:20:25.632Z,66.36
2023-04-09T21:22:56.606Z,66.25
2023-04-09T21:25:30.744Z,66.44
2023-04-09T21:28:01.689Z,66.51
2023-04-09T21:30:33.649Z,66.52
2023-04-09T21:33:11.394Z,66.41
2023-04-09T21:35:41.780Z,66.31
2023-04-09T21:38:12.082Z,66.33
2023-04-09T21:40:42.533Z,66.47
2023-04-09T21:43:13.362Z,66.35
2023-04-09T21:45:43.765Z,66.35
2023-04-09T21:48:15.200Z,66.47
2023-04-09T21:50:45.669Z,66.14
2023-04-09T21:53:16.411Z,66.00
2023-04-09T21:55:46.680Z,66.45
2023-04-09T21:58:16.932Z,66.35
2023-04-09T22:00:47.200Z,66.47
2023-04-09T22:03:18.291Z,66.24
2023-04-09T22:05:48.712Z,66.34
2023-04-09T22:08:19.053Z,66.58
2023-04-09T22:10:49.950Z,66.41
2023-04-09T22:13:20.364Z,66.27
2023-04-09T22:15:50.573Z,66.39
2023-04-09T22:18:20.914Z,66.29
2023-04-09T22:20:51.182Z,66.11
2023-04-09T22:23:21.454Z,66.12
2023-04-09T22:25:51.724Z,66.83
2023-04-09T22:28:22.334Z,66.75
2023-04-09T22:30:55.412Z,67.22
2023-04-09T22:33:25.713Z,67.01
2023-04-09T22:35:57.165Z,67.09
2023-04-09T22:38:27.258Z,67.28
2023-04-09T22:40:58.153Z,67.22
2023-04-09T22:45:58.479Z,66.75
2023-04-09T22:48:28.925Z,67.01
2023-04-09T22:51:00.277Z,67.02
2023-04-09T22:53:30.113Z,67.04
2023-04-09T22:56:01.633Z,66.91
2023-04-09T22:58:31.888Z,67.13
2023-04-09T23:01:02.390Z,67.17
2023-04-09T23:03:32.673Z,67.40
2023-04-09T23:06:03.573Z,67.27
2023-04-09T23:08:34.124Z,67.31
2023-04-09T23:11:04.422Z,67.36
2023-04-09T23:13:34.614Z,67.13
2023-04-09T23:16:10.872Z,67.26
2023-04-09T23:18:41.226Z,67.05
2023-04-09T23:21:14.960Z,67.27
2023-04-09T23:23:45.168Z,67.16
2023-04-09T23:26:15.388Z,67.37
2023-04-09T23:28:45.774Z,67.07
2023-04-09T23:31:16.040Z,67.38
2023-04-09T23:33:46.347Z,67.53
2023-04-09T23:36:16.682Z,67.35
2023-04-09T23:38:49.387Z,67.11
2023-04-09T23:41:19.900Z,67.14
2023-04-09T23:43:51.720Z,67.31
2023-04-09T23:46:22.295Z,67.13
2023-04-09T23:48:52.871Z,67.27
2023-04-09T23:51:23.440Z,67.35
2023-04-09T23:53:53.872Z,67.33
2023-04-09T23:56:25.578Z,67.64
2023-04-09T23:58:55.776Z,67.74
